Coastal Guardian — MQJT3 — position and weather

sailwx.info

Track history (hours):
 
Tides and Currents Weather Stations Pressure Air Temp Water Temp Dewpoint Dewpoint Depression Visibility Wind Speed Wind Dir Waves Ship Positions

Oceanographic research ship Coastal Guardian (UK)

Detailed information on ship capabilities available from University of Delaware's Ocean Information Center.

Last reported at 2018-Sep-20 05:55 UTC. Time now 2018-Dec-12 23:10 UTC.
Position N 55°57' W 004°46'.
Warning: this ship's position is months out of date.

Length 16 m.

Type: Diving. MMSI: 235087897.

Date/timePositionNaut miles runAvg speedWind from/ knotsBaromVisibWave heightAir tempDewpointWater temp
2018-Sep-20 05:55N 55°57' W 004°46'1 0.0
2018-Sep-18 16:22N 55°59' W 004°45'2 6.1
2018-Sep-18 16:03N 55°57' W 004°45'0 6.0
2018-Sep-18 16:00N 55°57' W 004°44'3 5.9
2018-Sep-18 15:30N 55°56' W 004°39'3 5.7
2018-Sep-18 15:03N 55°56' W 004°34'0 6.0
2018-Sep-18 15:00N 55°56' W 004°34'5 5.8
2018-Sep-18 14:03N 55°54' W 004°25'0 6.8
2018-Sep-18 14:01N 55°54' W 004°24'2 1.6
2018-Sep-18 12:28N 55°52' W 004°21'0 0.2
2018-Sep-18 12:02N 55°52' W 004°21'0 0.0
2018-Sep-18 11:47N 55°52' W 004°21'0 0.0
2018-Sep-18 11:30N 55°52' W 004°21'3 5.4
2018-Sep-18 11:02N 55°54' W 004°24'0 6.1
2018-Sep-18 11:00N 55°54' W 004°25'3 5.7
2018-Sep-18 10:29N 55°56' W 004°29'2 5.6
2018-Sep-18 10:03N 55°56' W 004°33'0 5.7
2018-Sep-18 10:00N 55°56' W 004°34'3 5.4
2018-Sep-18 09:30N 55°56' W 004°38'3 5.4
2018-Sep-18 09:02N 55°57' W 004°43'0 6.0
2018-Sep-18 08:59N 55°57' W 004°43'  
Track history (hours):
 
Tides and Currents Weather Stations Pressure Air Temp Water Temp Dewpoint Dewpoint Depression Visibility Wind Speed Wind Dir Waves Ship Positions

Oceanographic research ship Coastal Guardian (UK)

Detailed information on ship capabilities available from University of Delaware's Ocean Information Center.

Last reported at 2018-Sep-20 05:55 UTC. Time now 2018-Dec-12 23:10 UTC.
Position N 55°57' W 004°46'.
Warning: this ship's position is months out of date.

Length 16 m.

Type: Diving. MMSI: 235087897.

Date/timePositionNaut miles runAvg speedWind from/ knotsBaromVisibWave heightAir tempDewpointWater temp
2018-Sep-20 05:55N 55°57' W 004°46'1 0.0
2018-Sep-18 16:22N 55°59' W 004°45'2 6.1
2018-Sep-18 16:03N 55°57' W 004°45'0 6.0
2018-Sep-18 16:00N 55°57' W 004°44'3 5.9
2018-Sep-18 15:30N 55°56' W 004°39'3 5.7
2018-Sep-18 15:03N 55°56' W 004°34'0 6.0
2018-Sep-18 15:00N 55°56' W 004°34'5 5.8
2018-Sep-18 14:03N 55°54' W 004°25'0 6.8
2018-Sep-18 14:01N 55°54' W 004°24'2 1.6
2018-Sep-18 12:28N 55°52' W 004°21'0 0.2
2018-Sep-18 12:02N 55°52' W 004°21'0 0.0
2018-Sep-18 11:47N 55°52' W 004°21'0 0.0
2018-Sep-18 11:30N 55°52' W 004°21'3 5.4
2018-Sep-18 11:02N 55°54' W 004°24'0 6.1
2018-Sep-18 11:00N 55°54' W 004°25'3 5.7
2018-Sep-18 10:29N 55°56' W 004°29'2 5.6
2018-Sep-18 10:03N 55°56' W 004°33'0 5.7
2018-Sep-18 10:00N 55°56' W 004°34'3 5.4
2018-Sep-18 09:30N 55°56' W 004°38'3 5.4
2018-Sep-18 09:02N 55°57' W 004°43'0 6.0
2018-Sep-18 08:59N 55°57' W 004°43'  

Dump ship's entire track history